Time;durP1;ratioP1;P1;durP2;ratioP2;P2;SDS_P1;SDS_P2;PMS_P1;PMS_P2;Temp;Humidity;BMP_temperature;BMP_pressure;BME280_temperature;BME280_humidity;BME280_pressure;Samples;Min_cycle;Max_cycle;Signal;HPM_P1;HPM_P2
2022/01/12 00:00:44;;;;;;;7.50;5.50;;;;;;;3.45;63.81;102255.63;5079681;28;20048;-82
2022/01/12 00:03:11;;;;;;;8.30;5.78;;;;;;;3.40;64.35;102253.56;5078864;28;20055;-83
2022/01/12 00:05:38;;;;;;;8.20;5.88;;;;;;;3.39;64.30;102270.28;5078057;28;20051;-82
2022/01/12 00:08:07;;;;;;;12.05;6.00;;;;;;;3.40;64.28;102266.44;5078419;28;20055;-82
2022/01/12 00:10:38;;;;;;;11.67;7.47;;;;;;;3.35;64.60;102264.38;5078762;28;20060;-82
2022/01/12 00:13:06;;;;;;;10.15;6.28;;;;;;;3.31;64.46;102256.78;5076835;28;20067;-80
2022/01/12 00:15:34;;;;;;;15.75;9.52;;;;;;;3.20;64.23;102259.16;5076945;28;20056;-80
2022/01/12 00:18:01;;;;;;;11.43;7.10;;;;;;;3.16;64.93;102259.84;5077437;28;20499;-81
2022/01/12 00:20:30;;;;;;;13.20;8.60;;;;;;;3.14;65.31;102248.19;5076974;28;20052;-83
2022/01/12 00:22:57;;;;;;;11.88;7.57;;;;;;;3.07;65.27;102234.47;5076055;28;20056;-80
2022/01/12 00:25:32;;;;;;;11.85;7.00;;;;;;;3.03;64.90;102236.81;5077207;28;20045;-80
2022/01/12 00:33:30;;;;;;;9.25;5.40;;;;;;;2.67;65.97;102242.06;5081931;28;20048;-82
2022/01/12 00:35:59;;;;;;;11.55;8.02;;;;;;;2.71;66.15;102246.06;5077833;28;20052;-83
2022/01/12 00:38:29;;;;;;;10.90;6.72;;;;;;;2.69;65.85;102251.81;5076293;28;20065;-81
2022/01/12 00:40:58;;;;;;;11.85;7.47;;;;;;;2.62;65.97;102245.47;5076620;28;20053;-82
2022/01/12 00:43:29;;;;;;;7.55;5.35;;;;;;;2.68;66.57;102239.13;5076236;28;20056;-81
2022/01/12 00:45:57;;;;;;;7.28;5.20;;;;;;;2.67;66.27;102229.19;5076086;28;20052;-80
2022/01/12 00:48:24;;;;;;;9.05;5.55;;;;;;;2.72;66.14;102239.53;5076410;28;20053;-82
2022/01/12 00:50:52;;;;;;;7.97;5.13;;;;;;;2.74;66.82;102229.97;5075777;28;20060;-82
2022/01/12 00:53:22;;;;;;;7.55;5.05;;;;;;;2.75;67.05;102239.94;5074410;28;20488;-81
2022/01/12 00:55:49;;;;;;;8.60;5.95;;;;;;;2.63;67.18;102238.94;5076020;28;20052;-81
2022/01/12 00:58:17;;;;;;;7.72;5.30;;;;;;;2.72;67.62;102242.28;5078131;28;20048;-82
2022/01/12 01:00:46;;;;;;;8.60;4.97;;;;;;;2.76;67.44;102249.88;5077853;28;20075;-81
2022/01/12 01:03:13;;;;;;;7.28;5.22;;;;;;;2.68;67.38;102263.88;5077960;28;20049;-81
2022/01/12 01:05:41;;;;;;;9.52;6.05;;;;;;;2.80;67.28;102264.88;5078160;28;20060;-80
2022/01/12 01:08:09;;;;;;;8.07;5.25;;;;;;;2.91;67.54;102284.53;5077978;28;20063;-82
2022/01/12 01:10:45;;;;;;;10.30;5.53;;;;;;;3.00;67.07;102284.06;5076779;28;20489;-82
2022/01/12 01:13:14;;;;;;;7.38;5.40;;;;;;;3.08;66.77;102274.69;5077996;28;20135;-81
2022/01/12 01:16:00;;;;;;;7.13;5.00;;;;;;;3.13;66.88;102268.53;5077193;28;20486;-82
2022/01/12 01:26:49;;;;;;;7.93;5.63;;;;;;;3.14;66.15;102272.97;5081665;28;20485;-83
2022/01/12 01:29:17;;;;;;;8.03;5.17;;;;;;;3.05;67.00;102280.66;5080721;28;20056;-82
2022/01/12 01:31:45;;;;;;;9.43;5.45;;;;;;;3.20;66.30;102292.22;5081111;28;20477;-82
2022/01/12 01:34:15;;;;;;;9.63;5.78;;;;;;;3.23;66.29;102297.31;5081552;28;20413;-82
2022/01/12 01:36:44;;;;;;;;;;;;;;;3.26;66.85;102304.28;5081637;28;20515;-81
2022/01/12 01:39:14;;;;;;;9.18;4.93;;;;;;;3.41;66.15;102302.06;5081304;28;19920;-81
2022/01/12 01:41:46;;;;;;;9.07;5.80;;;;;;;3.50;66.09;102294.34;5080317;28;20433;-82
2022/01/12 01:55:13;;;;;;;9.13;4.75;;;;;;;3.97;65.14;102297.63;5068982;28;20064;-82
2022/01/12 01:57:42;;;;;;;6.35;4.70;;;;;;;4.05;64.84;102302.84;5061442;28;20061;-83
2022/01/12 02:00:12;;;;;;;6.55;4.20;;;;;;;4.18;64.36;102309.28;5069132;28;20048;-83
2022/01/12 02:02:40;;;;;;;6.68;4.28;;;;;;;4.29;63.74;102310.50;5081316;28;20053;-83
2022/01/12 02:05:13;;;;;;;6.35;4.35;;;;;;;4.30;63.86;102315.75;5080530;28;20055;-82
2022/01/12 02:07:41;;;;;;;8.20;5.07;;;;;;;4.45;63.04;102313.50;5080687;28;20481;-81
2022/01/12 02:10:12;;;;;;;6.47;4.35;;;;;;;4.54;62.54;102315.97;5080241;28;20055;-82
2022/01/12 02:12:39;;;;;;;7.22;4.32;;;;;;;4.57;62.56;102321.84;5080534;28;20057;-82
2022/01/12 02:15:17;;;;;;;5.88;4.20;;;;;;;4.57;62.65;102327.38;5080734;28;20086;-82
2022/01/12 02:18:01;;;;;;;6.18;4.60;;;;;;;4.48;62.36;102329.59;5081339;28;20058;-82
2022/01/12 02:37:17;;;;;;;5.85;3.70;;;;;;;4.83;60.37;102282.06;5086059;28;20075;-82
2022/01/12 02:39:52;;;;;;;5.65;4.22;;;;;;;4.68;60.75;102270.56;5078530;28;20056;-82
2022/01/12 02:42:20;;;;;;;9.70;4.60;;;;;;;4.67;60.75;102257.84;5078141;28;20059;-81
2022/01/12 02:55:49;;;;;;;5.25;3.50;;;;;;;4.63;60.58;102253.88;5079868;28;20508;-82
2022/01/12 02:58:17;;;;;;;5.50;3.55;;;;;;;4.62;60.24;102257.69;5080166;28;20056;-82
2022/01/12 03:01:04;;;;;;;7.63;4.47;;;;;;;4.46;60.91;102278.47;5080548;28;20040;-82
2022/01/12 03:03:37;;;;;;;6.30;4.43;;;;;;;4.52;61.40;102285.00;5080862;28;20052;-81
2022/01/12 03:06:07;;;;;;;5.78;3.85;;;;;;;4.56;61.40;102280.72;5079220;28;20056;-81
2022/01/12 03:08:37;;;;;;;5.47;3.97;;;;;;;4.54;61.44;102288.38;5079145;28;20060;-81
2022/01/12 03:11:07;;;;;;;7.80;4.47;;;;;;;4.56;61.50;102275.19;5078094;28;20060;-81
2022/01/12 03:13:36;;;;;;;6.55;4.32;;;;;;;4.55;61.51;102290.06;5078726;28;20059;-83
2022/01/12 03:16:12;;;;;;;6.32;4.10;;;;;;;4.60;61.21;102304.00;5079582;28;20056;-83
2022/01/12 03:18:40;;;;;;;5.10;3.58;;;;;;;4.63;61.22;102295.25;5079459;28;20119;-82
2022/01/12 03:21:08;;;;;;;7.68;4.60;;;;;;;4.60;61.68;102295.72;5079411;28;20053;-82
2022/01/12 03:23:37;;;;;;;5.82;4.10;;;;;;;4.68;61.32;102300.94;5078446;28;20049;-82
2022/01/12 03:26:06;;;;;;;5.32;4.25;;;;;;;4.73;61.43;102284.53;5077935;28;20413;-82
2022/01/12 03:28:34;;;;;;;6.55;4.30;;;;;;;4.70;61.17;102290.50;5079135;28;20056;-82
2022/01/12 03:31:08;;;;;;;6.25;4.30;;;;;;;4.83;60.68;102295.00;5079797;28;20044;-83
2022/01/12 03:33:56;;;;;;;6.28;4.15;;;;;;;4.90;60.48;102297.72;5080116;28;20055;-83
2022/01/12 03:36:42;;;;;;;6.05;4.28;;;;;;;4.90;60.44;102292.19;5078282;28;20055;-83
2022/01/12 03:39:11;;;;;;;5.90;4.13;;;;;;;5.00;59.97;102292.50;5079210;28;20048;-84
2022/01/12 03:41:42;;;;;;;7.05;4.28;;;;;;;4.98;59.67;102295.47;5079023;28;20056;-82
2022/01/12 03:44:11;;;;;;;5.85;4.35;;;;;;;5.03;59.70;102292.84;5078228;28;20052;-83
2022/01/12 03:46:44;;;;;;;5.82;3.95;;;;;;;4.99;59.52;102296.31;5078422;28;20048;-82
2022/01/12 03:49:11;;;;;;;5.78;4.13;;;;;;;5.09;59.64;102304.91;5077998;28;20099;-82
2022/01/12 03:51:39;;;;;;;6.75;4.25;;;;;;;5.19;59.88;102307.97;5078758;28;20055;-81
2022/01/12 03:54:06;;;;;;;6.00;3.92;;;;;;;5.23;59.27;102311.94;5078792;28;20393;-83
2022/01/12 03:56:34;;;;;;;5.07;3.90;;;;;;;5.31;59.01;102326.50;5078615;28;20053;-83
2022/01/12 03:59:04;;;;;;;5.47;3.92;;;;;;;5.37;59.49;102337.44;5078478;28;20048;-83
2022/01/12 04:01:31;;;;;;;5.53;3.67;;;;;;;5.46;59.65;102335.22;5077578;28;20056;-83
2022/01/12 04:04:02;;;;;;;5.90;4.43;;;;;;;5.53;59.13;102335.97;5078382;28;20056;-83
2022/01/12 04:09:15;;;;;;;6.30;4.50;;;;;;;5.57;58.77;102317.00;5078026;28;20512;-82
2022/01/12 04:11:42;;;;;;;5.90;4.35;;;;;;;5.52;58.97;102283.69;5077805;28;20052;-81
2022/01/12 04:14:12;;;;;;;5.00;4.00;;;;;;;5.52;58.98;102279.00;5078405;28;20060;-82
2022/01/12 04:16:40;;;;;;;7.35;4.30;;;;;;;5.21;59.46;102286.47;5078158;28;20482;-81
2022/01/12 04:19:08;;;;;;;5.60;4.10;;;;;;;5.33;58.85;102286.50;5077836;28;20048;-82
2022/01/12 04:21:42;;;;;;;6.25;3.80;;;;;;;5.33;58.10;102291.19;5077094;28;20060;-82
2022/01/12 04:24:09;;;;;;;7.50;4.60;;;;;;;5.28;58.43;102298.25;5077673;28;20405;-82
2022/01/12 04:26:37;;;;;;;6.75;3.85;;;;;;;5.28;58.60;102312.06;5077393;28;20052;-83
2022/01/12 04:29:06;;;;;;;6.25;4.15;;;;;;;5.35;58.44;102302.84;5078048;28;20051;-83
2022/01/12 04:31:38;;;;;;;6.18;4.47;;;;;;;5.42;58.54;102303.63;5077875;28;20078;-83
2022/01/12 04:34:06;;;;;;;6.22;4.40;;;;;;;5.49;57.96;102310.72;5077951;28;20060;-81
2022/01/12 04:36:34;;;;;;;5.00;3.88;;;;;;;5.45;58.28;102305.91;5077967;28;20506;-82
2022/01/12 04:39:03;;;;;;;5.35;4.45;;;;;;;5.57;57.95;102298.50;5078587;28;20053;-81
2022/01/12 04:41:30;;;;;;;7.00;4.05;;;;;;;5.51;58.36;102299.44;5077471;28;20052;-82
2022/01/12 04:43:57;;;;;;;6.40;4.10;;;;;;;5.55;58.22;102295.13;5079171;28;20076;-81
2022/01/12 04:46:34;;;;;;;6.57;4.82;;;;;;;5.63;58.33;102293.94;5078554;28;20058;-81
2022/01/12 04:49:25;;;;;;;7.47;4.88;;;;;;;5.68;58.41;102294.91;5080825;28;20481;-81
2022/01/12 04:51:53;;;;;;;7.75;4.60;;;;;;;5.74;58.70;102304.19;5079136;28;20052;-81
2022/01/12 04:54:21;;;;;;;8.98;5.05;;;;;;;5.78;59.21;102316.44;5080470;28;20048;-82
2022/01/12 04:56:48;;;;;;;7.50;4.38;;;;;;;5.83;58.83;102312.97;5081676;28;20052;-83
2022/01/12 04:59:15;;;;;;;6.63;4.38;;;;;;;5.86;59.00;102318.88;5082049;28;20055;-82
2022/01/12 05:01:51;;;;;;;6.93;5.05;;;;;;;5.89;59.17;102326.69;5082086;28;20045;-82
2022/01/12 05:07:27;;;;;;;8.18;5.28;;;;;;;5.73;58.94;102315.47;5082102;28;20060;-82
2022/01/12 05:12:47;;;;;;;6.78;4.68;;;;;;;5.86;58.30;102312.50;5079342;28;20045;-82
2022/01/12 05:12:54;;;;;;;9.90;5.05;;;;;;;5.86;58.24;102329.09;5081713;28;20052;-82
2022/01/12 05:15:29;;;;;;;6.93;5.15;;;;;;;5.82;57.94;102319.59;5080972;28;20071;-82
2022/01/12 05:17:56;;;;;;;7.32;5.07;;;;;;;5.72;59.12;102316.56;5080883;28;20478;-83
2022/01/12 05:20:25;;;;;;;9.05;5.30;;;;;;;5.63;59.83;102316.06;5081437;28;20060;-82
2022/01/12 05:22:53;;;;;;;8.73;4.85;;;;;;;5.72;60.17;102316.56;5080373;28;20052;-83
2022/01/12 05:25:22;;;;;;;7.35;5.35;;;;;;;5.81;59.95;102317.91;5079863;28;20044;-83
2022/01/12 05:27:49;;;;;;;7.20;5.43;;;;;;;5.82;58.34;102325.97;5079493;28;20052;-83
2022/01/12 05:30:17;;;;;;;5.57;4.13;;;;;;;5.88;57.70;102325.00;5079991;28;20056;-82
2022/01/12 05:32:46;;;;;;;6.03;4.57;;;;;;;5.85;57.69;102338.47;5080867;28;20059;-83
2022/01/12 05:35:15;;;;;;;6.50;4.75;;;;;;;5.91;57.80;102340.28;5080997;28;20048;-83
2022/01/12 05:37:45;;;;;;;6.80;3.97;;;;;;;5.95;57.54;102340.69;5080617;28;20155;-83
2022/01/12 05:40:14;;;;;;;6.90;4.95;;;;;;;6.00;57.21;102349.94;5080295;28;20454;-82
2022/01/12 05:42:43;;;;;;;6.87;4.80;;;;;;;6.02;57.52;102356.09;5079658;28;20056;-83
2022/01/12 05:45:11;;;;;;;6.65;4.50;;;;;;;6.02;57.53;102361.63;5077478;28;20056;-82
2022/01/12 05:50:24;;;;;;;7.18;4.63;;;;;;;5.98;57.64;102368.69;5080528;28;20519;-83
2022/01/12 05:52:54;;;;;;;6.68;4.82;;;;;;;6.09;57.46;102365.13;5080990;28;20059;-83
2022/01/12 05:55:22;;;;;;;6.30;4.70;;;;;;;6.01;57.66;102365.47;5080849;28;20063;-82
2022/01/12 05:57:49;;;;;;;6.95;4.53;;;;;;;5.91;57.87;102365.19;5080345;28;20059;-82
2022/01/12 06:00:19;;;;;;;9.77;4.80;;;;;;;5.93;57.64;102362.19;5081330;28;20052;-82
2022/01/12 06:02:46;;;;;;;6.43;4.55;;;;;;;6.00;56.70;102355.47;5079995;28;20044;-82
2022/01/12 06:05:14;;;;;;;6.80;5.38;;;;;;;5.92;57.41;102350.25;5080318;28;20072;-81
2022/01/12 06:07:42;;;;;;;7.60;5.63;;;;;;;5.87;57.28;102352.91;5080172;28;20063;-81
2022/01/12 06:10:11;;;;;;;6.38;5.05;;;;;;;5.79;57.91;102345.78;5080477;28;20056;-82
2022/01/12 06:12:39;;;;;;;6.32;4.75;;;;;;;5.73;58.08;102335.66;5078851;28;20079;-82
2022/01/12 06:15:09;;;;;;;6.45;5.28;;;;;;;5.69;57.97;102340.84;5080369;28;20060;-82
2022/01/12 06:17:37;;;;;;;7.88;5.68;;;;;;;5.43;58.76;102341.22;5079954;28;20053;-82
2022/01/12 06:20:06;;;;;;;6.40;4.63;;;;;;;5.44;58.93;102338.22;5081043;28;20059;-82
2022/01/12 06:22:34;;;;;;;6.10;4.50;;;;;;;5.48;58.58;102333.91;5080551;28;20052;-83
2022/01/12 06:25:04;;;;;;;6.03;5.03;;;;;;;5.54;58.30;102337.63;5081261;28;20446;-82
2022/01/12 06:27:34;;;;;;;6.43;4.63;;;;;;;5.52;58.22;102331.50;5080227;28;20063;-82
2022/01/12 06:31:09;;;;;;;;;;;;;;;5.48;57.59;102347.72;5080840;28;20044;-81
2022/01/12 06:32:52;;;;;;;7.05;5.18;;;;;;;5.43;57.53;102346.75;5080117;28;20377;-83
2022/01/12 06:35:19;;;;;;;6.88;5.03;;;;;;;5.40;57.61;102358.28;5080292;28;20048;-82
2022/01/12 06:37:47;;;;;;;27.48;13.40;;;;;;;5.37;58.11;102369.78;5079870;28;20606;-82
2022/01/12 06:40:16;;;;;;;15.73;9.13;;;;;;;5.45;58.66;102366.69;5080334;28;20059;-82
2022/01/12 06:42:46;;;;;;;12.20;6.65;;;;;;;5.56;58.89;102363.13;5077662;28;20048;-83
2022/01/12 06:45:13;;;;;;;7.85;5.68;;;;;;;5.64;58.90;102364.72;5059107;28;20052;-82
2022/01/12 06:47:42;;;;;;;7.32;5.25;;;;;;;5.73;59.16;102363.31;5065650;28;20076;-83
2022/01/12 06:50:10;;;;;;;6.60;5.47;;;;;;;5.74;59.57;102364.16;5079310;28;20053;-82
2022/01/12 06:52:37;;;;;;;7.88;5.80;;;;;;;5.76;59.02;102354.56;5078666;28;20067;-83
2022/01/12 06:55:05;;;;;;;7.95;5.93;;;;;;;5.80;59.02;102355.78;5078979;28;20063;-83
2022/01/12 06:57:33;;;;;;;6.80;5.22;;;;;;;5.83;59.29;102358.06;5078825;28;20413;-83
2022/01/12 07:00:02;;;;;;;7.53;5.95;;;;;;;5.86;58.46;102362.28;5079267;28;20060;-83
2022/01/12 07:02:29;;;;;;;9.80;8.25;;;;;;;5.92;58.53;102368.78;5078274;28;20048;-83
2022/01/12 07:04:56;;;;;;;10.00;8.50;;;;;;;5.93;58.21;102368.56;5079745;28;20052;-83
2022/01/12 07:07:24;;;;;;;8.95;6.70;;;;;;;5.96;58.74;102376.38;5077899;28;20044;-83
2022/01/12 07:09:52;;;;;;;9.52;7.35;;;;;;;6.02;58.10;102377.38;5077762;28;20052;-82
2022/01/12 07:12:19;;;;;;;9.55;6.63;;;;;;;6.01;58.13;102376.53;5078658;28;20067;-81
2022/01/12 07:14:46;;;;;;;8.32;5.63;;;;;;;5.96;57.60;102376.38;5077640;28;20056;-81
2022/01/12 07:17:15;;;;;;;7.70;5.60;;;;;;;5.97;57.38;102388.31;5078760;28;20055;-81
2022/01/12 07:19:43;;;;;;;6.90;5.95;;;;;;;5.97;57.27;102388.31;5078485;28;20481;-85
2022/01/12 07:22:10;;;;;;;6.55;5.40;;;;;;;5.81;57.75;102393.41;5078774;28;20056;-82
2022/01/12 07:24:38;;;;;;;6.88;5.03;;;;;;;5.86;56.97;102396.31;5078398;28;20051;-82
2022/01/12 07:27:07;;;;;;;7.75;5.60;;;;;;;5.93;56.97;102403.66;5076669;28;20063;-82
2022/01/12 07:29:35;;;;;;;9.82;6.10;;;;;;;6.00;56.85;102408.03;5078733;28;20052;-82
2022/01/12 07:32:02;;;;;;;8.60;5.85;;;;;;;6.10;56.44;102394.47;5078989;28;20072;-83
2022/01/12 07:34:31;;;;;;;8.52;5.93;;;;;;;6.08;56.46;102404.94;5078630;28;20052;-82
2022/01/12 07:36:58;;;;;;;8.65;5.53;;;;;;;6.06;56.22;102418.16;5077618;28;20067;-84
2022/01/12 07:39:26;;;;;;;9.27;6.00;;;;;;;5.96;56.73;102426.19;5077019;28;20053;-82
2022/01/12 07:41:53;;;;;;;9.32;5.40;;;;;;;6.03;56.45;102432.47;5078078;28;20052;-83
2022/01/12 07:44:21;;;;;;;8.13;5.72;;;;;;;6.06;56.34;102434.75;5077733;28;20049;-81
2022/01/12 07:46:48;;;;;;;8.40;5.20;;;;;;;6.11;56.63;102428.53;5077251;28;20056;-81
2022/01/12 07:49:16;;;;;;;8.75;5.63;;;;;;;6.05;56.52;102426.72;5077993;28;20075;-82
2022/01/12 07:51:44;;;;;;;9.75;5.72;;;;;;;5.95;56.63;102427.28;5076887;28;20076;-81
2022/01/12 07:54:12;;;;;;;7.72;5.88;;;;;;;5.77;56.96;102428.13;5076143;28;20481;-81
2022/01/12 07:56:39;;;;;;;9.18;6.18;;;;;;;5.95;56.31;102437.50;5076851;28;20049;-82
2022/01/12 07:59:06;;;;;;;9.25;5.82;;;;;;;6.00;56.56;102440.38;5077398;28;20049;-82
2022/01/12 08:01:33;;;;;;;10.45;6.20;;;;;;;6.05;56.34;102443.31;5077560;28;20540;-80
2022/01/12 08:04:01;;;;;;;9.98;5.90;;;;;;;6.05;56.18;102444.16;5076106;28;20067;-82
2022/01/12 08:06:28;;;;;;;9.63;5.90;;;;;;;6.10;56.44;102455.34;5076915;28;20052;-81
2022/01/12 08:08:57;;;;;;;8.38;6.35;;;;;;;6.07;56.83;102452.22;5075516;28;20071;-83
2022/01/12 08:11:25;;;;;;;9.45;7.00;;;;;;;5.91;57.92;102464.75;5072468;28;20130;-86
2022/01/12 08:13:52;;;;;;;8.93;5.97;;;;;;;6.14;57.87;102472.31;5067839;28;20053;-87
2022/01/12 08:16:20;;;;;;;10.05;6.60;;;;;;;6.25;58.51;102476.19;5078264;28;20051;-86
2022/01/12 08:18:47;;;;;;;8.30;5.57;;;;;;;6.31;58.12;102491.88;5078384;28;20075;-87
2022/01/12 08:21:15;;;;;;;9.45;6.32;;;;;;;6.41;58.13;102486.59;5080276;28;20052;-87
2022/01/12 08:23:44;;;;;;;8.65;6.03;;;;;;;6.42;58.24;102488.28;5077426;28;20518;-86
2022/01/12 08:26:13;;;;;;;10.32;6.30;;;;;;;6.49;57.89;102482.66;5066399;28;20053;-87
2022/01/12 08:28:40;;;;;;;13.50;6.50;;;;;;;6.58;57.86;102486.75;5078301;28;20048;-87
2022/01/12 08:31:08;;;;;;;9.88;6.18;;;;;;;6.50;57.33;102479.63;5076949;28;20477;-88
2022/01/12 08:33:35;;;;;;;10.95;7.22;;;;;;;6.19;58.11;102485.44;5076946;28;20044;-87
2022/01/12 08:36:04;;;;;;;9.20;6.55;;;;;;;6.49;58.70;102477.97;5077990;28;20055;-88
2022/01/12 08:38:32;;;;;;;9.45;6.65;;;;;;;6.62;57.96;102476.06;5077529;28;20063;-87
2022/01/12 08:40:59;;;;;;;7.63;6.22;;;;;;;6.76;57.16;102476.66;5076927;28;20063;-86
2022/01/12 08:43:31;;;;;;;10.55;6.60;;;;;;;6.79;56.54;102482.56;5076547;28;20056;-87
2022/01/12 08:45:58;;;;;;;8.88;6.60;;;;;;;6.64;57.18;102484.97;5075492;28;20056;-85
2022/01/12 08:48:25;;;;;;;10.50;7.30;;;;;;;6.82;56.52;102492.31;5076082;28;20470;-85
2022/01/12 08:50:53;;;;;;;11.40;6.93;;;;;;;6.57;57.17;102498.91;5075594;28;20053;-83
2022/01/12 08:53:20;;;;;;;9.95;6.20;;;;;;;6.78;56.68;102497.47;5075785;28;20056;-88
2022/01/12 08:55:48;;;;;;;11.88;7.30;;;;;;;6.97;54.93;102501.03;5076638;28;20049;-86
2022/01/12 08:58:15;;;;;;;11.90;7.07;;;;;;;6.96;55.25;102498.47;5078297;28;20052;-88
2022/01/12 09:00:44;;;;;;;12.32;7.78;;;;;;;6.95;55.34;102496.78;5075458;28;20506;-88
2022/01/12 09:03:12;;;;;;;9.95;7.60;;;;;;;6.95;54.47;102497.66;5077244;28;20515;-88
2022/01/12 09:05:39;;;;;;;12.10;6.85;;;;;;;6.92;55.29;102498.09;5077601;28;20056;-88
2022/01/12 09:08:07;;;;;;;9.73;7.13;;;;;;;6.93;54.77;102510.91;5078006;28;20048;-86
2022/01/12 09:10:35;;;;;;;13.15;7.15;;;;;;;7.10;54.00;102513.78;5077357;28;20052;-85
2022/01/12 09:13:03;;;;;;;8.32;6.53;;;;;;;7.08;54.78;102516.78;5077822;28;20049;-82
2022/01/12 09:15:30;;;;;;;10.60;7.10;;;;;;;7.06;54.56;102509.81;5075461;28;20052;-85
2022/01/12 09:17:59;;;;;;;9.68;6.88;;;;;;;7.22;54.66;102522.09;5076885;28;20048;-88
2022/01/12 09:20:28;;;;;;;11.38;7.63;;;;;;;7.22;53.76;102520.16;5075331;28;20067;-85
2022/01/12 09:22:56;;;;;;;11.35;7.43;;;;;;;7.28;54.51;102527.50;5075059;28;20052;-82
2022/01/12 09:25:23;;;;;;;10.27;7.00;;;;;;;7.27;54.70;102531.38;5075857;28;20053;-88
2022/01/12 09:27:50;;;;;;;10.57;7.28;;;;;;;7.40;54.45;102537.75;5082828;28;20053;-88
2022/01/12 09:30:19;;;;;;;10.30;7.00;;;;;;;7.48;54.19;102534.63;5077394;28;20052;-87
2022/01/12 09:32:47;;;;;;;9.60;7.35;;;;;;;7.45;54.52;102543.41;5075819;28;20068;-86
2022/01/12 09:35:16;;;;;;;10.48;7.35;;;;;;;7.57;53.96;102551.72;5076714;28;20056;-87
2022/01/12 09:37:43;;;;;;;9.47;7.40;;;;;;;7.60;53.78;102546.53;5076379;28;20053;-86
2022/01/12 09:40:12;;;;;;;10.32;7.70;;;;;;;7.55;53.93;102557.50;5079587;28;20060;-86
2022/01/12 09:42:42;;;;;;;10.55;8.02;;;;;;;7.64;53.80;102556.06;5081064;28;20052;-86
2022/01/12 09:45:14;;;;;;;10.52;8.00;;;;;;;7.65;53.73;102563.28;5079829;28;20059;-84
2022/01/12 09:47:43;;;;;;;12.30;8.70;;;;;;;7.69;53.66;102558.09;5080405;28;20056;-87
2022/01/12 09:50:12;;;;;;;13.35;7.28;;;;;;;7.70;53.74;102555.06;5081029;28;20051;-86
2022/01/12 09:52:41;;;;;;;12.63;8.35;;;;;;;7.73;53.84;102560.16;5082064;28;20059;-86
2022/01/12 09:55:09;;;;;;;11.23;7.68;;;;;;;7.74;53.77;102560.97;5081223;28;20049;-87
2022/01/12 09:57:37;;;;;;;10.27;6.97;;;;;;;7.80;53.07;102548.91;5081342;28;20056;-86
2022/01/12 10:00:07;;;;;;;13.25;7.70;;;;;;;7.85;53.78;102550.94;5081343;28;20056;-86
2022/01/12 10:02:34;;;;;;;13.82;8.10;;;;;;;7.95;53.62;102545.59;5059825;28;20056;-86
2022/01/12 10:05:04;;;;;;;12.27;7.60;;;;;;;8.00;53.00;102539.31;5076513;28;20044;-86
2022/01/12 10:07:32;;;;;;;14.70;9.30;;;;;;;8.00;53.29;102540.19;5080655;28;20059;-88
2022/01/12 10:10:05;;;;;;;15.70;10.00;;;;;;;8.04;53.30;102540.50;5079045;28;20063;-83
2022/01/12 10:12:32;;;;;;;11.82;8.52;;;;;;;7.98;53.43;102545.13;5080608;28;20048;-83
2022/01/12 10:15:01;;;;;;;12.07;8.45;;;;;;;7.91;54.52;102541.63;5079906;28;20043;-85
2022/01/12 10:17:33;;;;;;;11.00;8.43;;;;;;;8.12;53.45;102548.44;5079424;28;20084;-86
2022/01/12 10:20:09;;;;;;;11.93;8.20;;;;;;;8.18;53.83;102544.69;5079769;28;20067;-87
2022/01/12 10:22:37;;;;;;;13.13;8.45;;;;;;;8.24;53.92;102542.88;5079711;28;20048;-83
2022/01/12 10:25:17;;;;;;;11.40;8.35;;;;;;;8.28;53.37;102532.94;5078594;28;20048;-86
2022/01/12 10:27:45;;;;;;;13.13;8.55;;;;;;;8.41;53.96;102529.06;5079542;28;20383;-87
2022/01/12 10:30:20;;;;;;;11.50;8.18;;;;;;;8.52;53.36;102530.91;5080637;28;20048;-86
2022/01/12 10:32:48;;;;;;;13.80;9.20;;;;;;;8.28;53.80;102524.63;5082097;28;20370;-85
2022/01/12 10:35:25;;;;;;;13.27;8.65;;;;;;;8.62;53.20;102533.03;5083741;28;20049;-87
2022/01/12 10:37:52;;;;;;;12.48;9.10;;;;;;;8.77;52.88;102519.41;5096348;28;20052;-87
2022/01/12 10:40:21;;;;;;;14.00;9.60;;;;;;;8.87;52.76;102518.75;5080641;28;20128;-87
2022/01/12 10:42:49;;;;;;;16.07;9.23;;;;;;;8.67;52.22;102527.56;5075402;28;20056;-87
2022/01/12 10:45:16;;;;;;;14.80;9.52;;;;;;;8.92;51.80;102528.03;5078422;28;20506;-86
2022/01/12 10:47:44;;;;;;;12.63;9.13;;;;;;;8.94;51.21;102536.09;5083582;28;20055;-87
2022/01/12 10:50:11;;;;;;;11.65;8.45;;;;;;;9.05;51.11;102537.09;5078698;28;20044;-87
2022/01/12 10:52:49;;;;;;;11.85;8.25;;;;;;;9.00;51.48;102539.81;5070480;28;20045;-86
2022/01/12 10:55:17;;;;;;;15.32;8.68;;;;;;;8.90;52.00;102540.47;5073741;28;20060;-87
2022/01/12 10:57:48;;;;;;;13.13;8.73;;;;;;;9.03;51.73;102542.06;5092654;28;20405;-87
2022/01/12 11:00:22;;;;;;;12.30;9.00;;;;;;;9.08;51.47;102544.94;5079749;28;20056;-88
2022/01/12 11:02:52;;;;;;;14.13;8.90;;;;;;;9.12;51.51;102551.69;5085573;28;20055;-88
2022/01/12 11:05:22;;;;;;;12.75;8.80;;;;;;;9.07;51.66;102546.03;5080095;28;20071;-88
2022/01/12 11:07:52;;;;;;;13.32;9.30;;;;;;;9.16;51.82;102554.81;5076506;28;20056;-85
2022/01/12 11:10:23;;;;;;;16.65;9.55;;;;;;;9.14;52.02;102561.44;5076977;28;20049;-84
2022/01/12 11:12:53;;;;;;;12.68;8.93;;;;;;;9.16;52.06;102560.38;5077918;28;20390;-84
2022/01/12 11:15:22;;;;;;;15.05;9.95;;;;;;;9.12;51.83;102565.59;5076055;28;20049;-84
2022/01/12 11:17:51;;;;;;;14.52;10.10;;;;;;;9.09;52.71;102571.63;5076490;28;20056;-84
2022/01/12 11:20:22;;;;;;;13.90;9.52;;;;;;;9.06;52.81;102564.66;5077257;28;20061;-84
2022/01/12 11:22:57;;;;;;;16.02;10.30;;;;;;;9.13;52.57;102556.13;5076477;28;20556;-83
2022/01/12 11:25:28;;;;;;;17.38;11.45;;;;;;;9.18;51.52;102572.91;5076036;28;20041;-85
2022/01/12 11:28:13;;;;;;;15.15;10.15;;;;;;;8.98;52.88;102564.22;5076442;28;20048;-84
2022/01/12 11:30:44;;;;;;;15.32;11.05;;;;;;;8.89;53.08;102567.41;5072466;28;20044;-85
2022/01/12 11:33:13;;;;;;;15.90;10.15;;;;;;;8.93;52.83;102574.16;5076548;28;20052;-83
2022/01/12 11:35:43;;;;;;;13.60;10.00;;;;;;;8.89;53.28;102567.41;5075703;28;20555;-86
2022/01/12 11:38:23;;;;;;;14.32;9.80;;;;;;;8.69;54.05;102567.06;5073390;28;20048;-81
2022/01/12 11:40:52;;;;;;;15.40;11.00;;;;;;;8.80;53.30;102570.84;5066756;28;20052;-79
2022/01/12 11:43:23;;;;;;;17.95;11.68;;;;;;;8.79;54.41;102575.56;5069756;28;20055;-79
2022/01/12 11:46:06;;;;;;;18.63;12.35;;;;;;;8.91;54.15;102570.78;5069940;28;20474;-80
2022/01/12 11:48:36;;;;;;;19.75;12.65;;;;;;;8.99;54.31;102568.69;5067158;28;20053;-80
2022/01/12 11:51:04;;;;;;;22.15;12.70;;;;;;;8.99;54.09;102561.22;5068160;28;20049;-80
2022/01/12 11:53:31;;;;;;;21.13;13.13;;;;;;;8.92;54.34;102564.16;5072016;28;20048;-79
2022/01/12 11:56:15;;;;;;;21.58;13.15;;;;;;;9.00;54.76;102570.38;5065048;28;20063;-79
2022/01/12 11:58:59;;;;;;;19.70;13.15;;;;;;;9.05;54.63;102568.53;5065897;28;20060;-81
2022/01/12 12:01:41;;;;;;;19.55;13.07;;;;;;;9.00;55.02;102573.16;5067470;28;20059;-80
2022/01/12 12:04:09;;;;;;;21.98;13.88;;;;;;;8.81;55.94;102578.94;5070475;28;20060;-80
2022/01/12 12:06:37;;;;;;;21.33;13.40;;;;;;;8.76;55.76;102578.00;5072649;28;20158;-80
2022/01/12 12:09:07;;;;;;;23.35;15.60;;;;;;;8.88;55.37;102578.78;5064204;28;20048;-80
2022/01/12 12:11:35;;;;;;;23.17;14.93;;;;;;;8.78;56.16;102576.69;5073100;28;20060;-79
2022/01/12 12:14:06;;;;;;;23.58;15.50;;;;;;;8.76;56.26;102576.09;5071941;28;20075;-79
2022/01/12 12:16:35;;;;;;;22.45;15.25;;;;;;;8.72;56.51;102569.34;5071067;28;20603;-81
2022/01/12 12:19:05;;;;;;;25.17;15.70;;;;;;;8.76;56.26;102573.31;5079024;28;20052;-82
2022/01/12 12:21:33;;;;;;;24.70;15.52;;;;;;;8.69;56.04;102572.63;5073640;28;20056;-82
2022/01/12 12:24:08;;;;;;;26.70;15.48;;;;;;;8.67;56.67;102574.78;5075924;28;20048;-83
2022/01/12 12:26:44;;;;;;;23.77;15.82;;;;;;;8.63;56.70;102582.81;5079993;28;20053;-84
2022/01/12 12:29:15;;;;;;;29.88;18.58;;;;;;;8.65;56.49;102577.84;5073034;28;20064;-85
2022/01/12 12:31:48;;;;;;;27.52;16.63;;;;;;;8.66;57.43;102567.56;5087299;28;20052;-85
2022/01/12 12:34:16;;;;;;;25.75;16.42;;;;;;;8.73;56.86;102571.03;5076840;28;20055;-86
2022/01/12 12:36:43;;;;;;;23.77;15.13;;;;;;;8.79;56.67;102563.63;5076123;28;20508;-82
2022/01/12 12:39:13;;;;;;;29.02;17.73;;;;;;;8.80;57.18;102563.38;5075577;28;20524;-88
2022/01/12 12:41:46;;;;;;;24.98;15.68;;;;;;;8.83;57.20;102568.41;5076293;28;20450;-87